Time;durP1;ratioP1;P1;durP2;ratioP2;P2;SDS_P1;SDS_P2;PMS_P1;PMS_P2;Temp;Humidity;BMP_temperature;BMP_pressure;BME280_temperature;BME280_humidity;BME280_pressure;Samples;Min_cycle;Max_cycle;Signal;HPM_P1;HPM_P2
2023/08/27 00:01:09;;;;;;;3.42;1.55;;;;;;;;;;5065051;28;20048;-85
2023/08/27 00:03:35;;;;;;;3.72;1.58;;;;;;;;;;5064982;28;20061;-84
2023/08/27 00:06:02;;;;;;;4.97;1.95;;;;;;;;;;5058565;28;20049;-84
2023/08/27 00:08:29;;;;;;;4.13;2.03;;;;;;;;;;5061441;28;20052;-85
2023/08/27 00:10:59;;;;;;;2.67;1.42;;;;;;;;;;5067468;28;20052;-86
2023/08/27 00:13:27;;;;;;;;;;;;;;;;;;5066498;28;20041;-84
2023/08/27 00:15:54;;;;;;;3.47;1.60;;;;;;;;;;5062882;28;19948;-86
2023/08/27 00:18:21;;;;;;;3.95;1.60;;;;;;;;;;5068197;28;20105;-85
2023/08/27 00:20:48;;;;;;;3.00;1.42;;;;;;;;;;5064960;28;20064;-85
2023/08/27 00:23:15;;;;;;;3.10;1.58;;;;;;;;;;5056307;28;20073;-87
2023/08/27 00:25:43;;;;;;;10.43;3.13;;;;;;;;;;5075273;28;20056;-85
2023/08/27 00:28:13;;;;;;;4.25;1.88;;;;;;;;;;5076876;28;20117;-86
2023/08/27 00:30:40;;;;;;;3.30;1.40;;;;;;;;;;5071675;28;20083;-85
2023/08/27 00:33:07;;;;;;;2.95;1.58;;;;;;;;;;5070902;28;20283;-85
2023/08/27 00:35:35;;;;;;;3.15;1.60;;;;;;;;;;5071420;28;20117;-85
2023/08/27 00:38:02;;;;;;;3.88;1.60;;;;;;;;;;5076719;28;20048;-89
2023/08/27 00:43:11;;;;;;;3.65;1.90;;;;;;;;;;5076261;28;20049;-86
2023/08/27 00:45:40;;;;;;;2.92;1.52;;;;;;;;;;5072066;28;20056;-84
2023/08/27 00:48:08;;;;;;;4.28;1.50;;;;;;;;;;5071647;28;20049;-88
2023/08/27 00:50:35;;;;;;;2.90;1.50;;;;;;;;;;5071349;28;20415;-84
2023/08/27 00:53:03;;;;;;;2.72;1.50;;;;;;;;;;5071833;28;20124;-84
2023/08/27 00:55:30;;;;;;;3.17;1.30;;;;;;;;;;5070389;28;20117;-86
2023/08/27 00:57:58;;;;;;;3.35;1.20;;;;;;;;;;5070528;28;20048;-86
2023/08/27 01:00:25;;;;;;;3.80;1.45;;;;;;;;;;5088952;28;20070;-85
2023/08/27 01:02:53;;;;;;;3.47;1.20;;;;;;;;;;5090328;28;20112;-85
2023/08/27 01:05:21;;;;;;;3.72;2.10;;;;;;;;;;5088930;28;20048;-86
2023/08/27 01:07:54;;;;;;;6.10;1.67;;;;;;;;;;5060423;28;20075;-86
2023/08/27 01:10:27;;;;;;;5.53;1.60;;;;;;;;;;5071647;28;20056;-86
2023/08/27 01:13:02;;;;;;;3.97;1.60;;;;;;;;;;5066991;28;20070;-87
2023/08/27 01:15:29;;;;;;;3.17;1.30;;;;;;;;;;5055795;28;20049;-86
2023/08/27 01:18:00;;;;;;;4.75;1.40;;;;;;;;;;5069406;28;20053;-85
2023/08/27 01:20:27;;;;;;;4.30;1.60;;;;;;;;;;5065493;28;20079;-84
2023/08/27 01:22:55;;;;;;;3.15;1.50;;;;;;;;;;5063747;28;20049;-85
2023/08/27 01:25:27;;;;;;;3.45;1.40;;;;;;;;;;5068723;28;20048;-85
2023/08/27 01:28:00;;;;;;;2.95;1.30;;;;;;;;;;5067887;28;20087;-85
2023/08/27 01:30:32;;;;;;;2.40;1.30;;;;;;;;;;5075743;28;20037;-87
2023/08/27 01:33:03;;;;;;;3.75;1.48;;;;;;;;;;5070273;28;20080;-87
2023/08/27 01:35:31;;;;;;;4.18;1.70;;;;;;;;;;5074960;28;20088;-90
2023/08/27 01:38:01;;;;;;;2.75;1.75;;;;;;;;;;5076660;28;20100;-89
2023/08/27 01:40:30;;;;;;;3.95;1.70;;;;;;;;;;5083287;28;20068;-85
2023/08/27 01:42:57;;;;;;;3.80;1.65;;;;;;;;;;5084034;28;20052;-87
2023/08/27 01:45:24;;;;;;;2.33;1.35;;;;;;;;;;5087501;28;20067;-84
2023/08/27 01:47:50;;;;;;;3.30;1.33;;;;;;;;;;5080268;28;20571;-84
2023/08/27 01:50:17;;;;;;;3.42;1.60;;;;;;;;;;5067985;28;20088;-86
2023/08/27 01:52:43;;;;;;;3.13;1.70;;;;;;;;;;5068617;28;20056;-85
2023/08/27 01:55:11;;;;;;;3.88;1.33;;;;;;;;;;5069400;28;20146;-86
2023/08/27 01:57:39;;;;;;;4.85;1.50;;;;;;;;;;5069362;28;20129;-87
2023/08/27 02:00:08;;;;;;;4.28;1.45;;;;;;;;;;5069451;28;20135;-84
2023/08/27 02:02:36;;;;;;;3.78;1.48;;;;;;;;;;5063819;28;20060;-84
2023/08/27 02:05:04;;;;;;;2.92;1.17;;;;;;;;;;5061115;28;20133;-84
2023/08/27 02:07:31;;;;;;;4.43;1.42;;;;;;;;;;5059340;28;20083;-84
2023/08/27 02:09:57;;;;;;;3.30;1.40;;;;;;;;;;5057785;28;20076;-83
2023/08/27 02:12:25;;;;;;;3.30;1.52;;;;;;;;;;5060179;28;20059;-86
2023/08/27 02:14:52;;;;;;;3.08;1.48;;;;;;;;;;5049292;28;20136;-85
2023/08/27 02:17:18;;;;;;;4.00;1.70;;;;;;;;;;5060658;28;20053;-86
2023/08/27 02:19:45;;;;;;;3.25;1.40;;;;;;;;;;5062357;28;20052;-84
2023/08/27 02:22:11;;;;;;;3.28;1.50;;;;;;;;;;5065287;28;20084;-83
2023/08/27 02:24:38;;;;;;;3.83;1.58;;;;;;;;;;5063297;28;20072;-84
2023/08/27 02:27:05;;;;;;;3.28;1.50;;;;;;;;;;5064399;28;20136;-85
2023/08/27 02:29:33;;;;;;;3.80;1.40;;;;;;;;;;5065820;28;20087;-85
2023/08/27 02:31:59;;;;;;;4.40;1.70;;;;;;;;;;5084968;28;20100;-84
2023/08/27 02:34:26;;;;;;;3.47;1.67;;;;;;;;;;5082475;28;20059;-85
2023/08/27 02:36:53;;;;;;;4.65;1.52;;;;;;;;;;5070539;28;20113;-85
2023/08/27 02:39:19;;;;;;;2.70;1.30;;;;;;;;;;5070431;28;20064;-88
2023/08/27 02:41:46;;;;;;;3.33;1.33;;;;;;;;;;5071221;28;20088;-86
2023/08/27 02:44:12;;;;;;;2.97;1.35;;;;;;;;;;5059910;28;20041;-84
2023/08/27 02:46:40;;;;;;;4.47;1.70;;;;;;;;;;5057552;28;20045;-83
2023/08/27 02:49:07;;;;;;;3.25;1.67;;;;;;;;;;5059782;28;20053;-84
2023/08/27 02:51:33;;;;;;;4.10;1.90;;;;;;;;;;5063224;28;20100;-84
2023/08/27 02:54:00;;;;;;;3.83;1.70;;;;;;;;;;5073598;28;20068;-86
2023/08/27 02:56:27;;;;;;;3.45;1.42;;;;;;;;;;5059833;28;20078;-84
2023/08/27 02:58:53;;;;;;;3.78;1.63;;;;;;;;;;5060897;28;20049;-84
2023/08/27 03:01:21;;;;;;;4.97;2.05;;;;;;;;;;5064693;28;20091;-86
2023/08/27 03:03:50;;;;;;;3.03;1.50;;;;;;;;;;5061198;28;20075;-84
2023/08/27 03:06:17;;;;;;;3.55;1.52;;;;;;;;;;5060888;28;20515;-84
2023/08/27 03:08:43;;;;;;;2.83;1.55;;;;;;;;;;5061473;28;20045;-87
2023/08/27 03:11:10;;;;;;;6.35;1.90;;;;;;;;;;5061630;28;20056;-84
2023/08/27 03:13:36;;;;;;;4.32;1.50;;;;;;;;;;5066915;28;20041;-84
2023/08/27 03:16:03;;;;;;;3.10;1.40;;;;;;;;;;5061331;28;20053;-88
2023/08/27 03:18:30;;;;;;;3.92;1.40;;;;;;;;;;5062243;28;20521;-84
2023/08/27 03:20:58;;;;;;;3.15;1.55;;;;;;;;;;5065299;28;20055;-87
2023/08/27 03:23:25;;;;;;;3.33;1.75;;;;;;;;;;5067212;28;20142;-86
2023/08/27 03:25:52;;;;;;;3.40;1.70;;;;;;;;;;5067462;28;20049;-83
2023/08/27 03:28:19;;;;;;;3.88;1.60;;;;;;;;;;5068546;28;20139;-85
2023/08/27 03:30:45;;;;;;;3.33;1.58;;;;;;;;;;5068047;28;20053;-84
2023/08/27 03:33:12;;;;;;;4.97;1.80;;;;;;;;;;5068207;28;20041;-85
2023/08/27 03:35:38;;;;;;;4.15;1.88;;;;;;;;;;5082185;28;20059;-84
2023/08/27 03:38:06;;;;;;;2.95;1.38;;;;;;;;;;5086821;28;20054;-84
2023/08/27 03:40:33;;;;;;;4.68;1.70;;;;;;;;;;5087971;28;20064;-85
2023/08/27 03:42:59;;;;;;;4.00;2.05;;;;;;;;;;5085335;28;20053;-84
2023/08/27 03:45:26;;;;;;;3.65;1.63;;;;;;;;;;5071935;28;20275;-84
2023/08/27 03:47:52;;;;;;;4.60;1.70;;;;;;;;;;5072832;28;20041;-88
2023/08/27 03:50:19;;;;;;;2.97;1.60;;;;;;;;;;5073745;28;20048;-90
2023/08/27 03:52:46;;;;;;;4.13;2.10;;;;;;;;;;5079363;28;20029;-89
2023/08/27 03:55:14;;;;;;;3.63;1.67;;;;;;;;;;5079748;28;20088;-89
2023/08/27 03:57:40;;;;;;;3.40;1.85;;;;;;;;;;5079188;28;20039;-89
2023/08/27 04:00:08;;;;;;;3.03;1.67;;;;;;;;;;5072112;28;20045;-87
2023/08/27 04:02:35;;;;;;;4.05;1.77;;;;;;;;;;5069651;28;20052;-86
2023/08/27 04:05:05;;;;;;;3.67;1.80;;;;;;;;;;5070056;28;20098;-85
2023/08/27 04:07:31;;;;;;;4.50;1.98;;;;;;;;;;5070652;28;20107;-87
2023/08/27 04:09:58;;;;;;;2.90;1.80;;;;;;;;;;5080072;28;20048;-87
2023/08/27 04:12:26;;;;;;;3.72;1.70;;;;;;;;;;5095229;28;20132;-88
2023/08/27 04:14:52;;;;;;;5.00;1.90;;;;;;;;;;5086127;28;20041;-87
2023/08/27 04:17:19;;;;;;;3.20;1.50;;;;;;;;;;5071680;28;20105;-84
2023/08/27 04:19:45;;;;;;;3.88;1.98;;;;;;;;;;5057217;28;20502;-85
2023/08/27 04:22:12;;;;;;;4.15;2.03;;;;;;;;;;5055584;28;20045;-84
2023/08/27 04:24:38;;;;;;;4.40;2.00;;;;;;;;;;5058523;28;20041;-83
2023/08/27 04:27:05;;;;;;;4.38;1.90;;;;;;;;;;5057748;28;20479;-83
2023/08/27 04:29:33;;;;;;;4.45;1.80;;;;;;;;;;5062708;28;20033;-88
2023/08/27 04:32:00;;;;;;;4.13;2.42;;;;;;;;;;5078620;28;20033;-88
2023/08/27 04:34:26;;;;;;;3.15;1.70;;;;;;;;;;5070359;28;20059;-85
2023/08/27 04:36:53;;;;;;;4.63;2.03;;;;;;;;;;5070822;28;20132;-86
2023/08/27 04:39:19;;;;;;;2.72;1.75;;;;;;;;;;5068678;28;20043;-86
2023/08/27 04:41:46;;;;;;;4.22;2.10;;;;;;;;;;5069993;28;20072;-84
2023/08/27 04:44:12;;;;;;;5.30;2.10;;;;;;;;;;5073315;28;20033;-84
2023/08/27 04:46:41;;;;;;;4.30;2.33;;;;;;;;;;5088125;28;20108;-87
2023/08/27 04:49:07;;;;;;;3.83;1.95;;;;;;;;;;5096460;28;20755;-89
2023/08/27 04:51:34;;;;;;;3.58;2.08;;;;;;;;;;5094846;28;20043;-83
2023/08/27 04:54:01;;;;;;;4.40;1.92;;;;;;;;;;5087202;28;20044;-83
2023/08/27 04:56:29;;;;;;;3.60;2.10;;;;;;;;;;5078318;28;20060;-86
2023/08/27 04:58:55;;;;;;;4.43;1.98;;;;;;;;;;5067215;28;20052;-84
2023/08/27 05:01:22;;;;;;;4.50;2.08;;;;;;;;;;5068028;28;20048;-86
2023/08/27 05:03:50;;;;;;;3.65;1.80;;;;;;;;;;5067411;28;20079;-85
2023/08/27 05:06:16;;;;;;;3.60;2.08;;;;;;;;;;5068305;28;20044;-84
2023/08/27 05:08:43;;;;;;;4.10;1.80;;;;;;;;;;5068287;28;20076;-85
2023/08/27 05:11:09;;;;;;;4.40;2.42;;;;;;;;;;5073805;28;20056;-84
2023/08/27 05:13:36;;;;;;;3.50;2.00;;;;;;;;;;5069091;28;20044;-84
2023/08/27 05:16:03;;;;;;;6.43;2.30;;;;;;;;;;5069350;28;20128;-86
2023/08/27 05:18:29;;;;;;;5.03;2.70;;;;;;;;;;5087538;28;20045;-85
2023/08/27 05:20:57;;;;;;;4.65;2.42;;;;;;;;;;5090126;28;20115;-86
2023/08/27 05:23:24;;;;;;;3.40;2.00;;;;;;;;;;5091412;28;20132;-85
2023/08/27 05:25:50;;;;;;;3.63;2.25;;;;;;;;;;5074612;28;20080;-85
2023/08/27 05:28:17;;;;;;;3.33;1.95;;;;;;;;;;5078356;28;20143;-83
2023/08/27 05:30:45;;;;;;;4.90;2.28;;;;;;;;;;5086309;28;20048;-84
2023/08/27 05:33:11;;;;;;;3.92;1.95;;;;;;;;;;5086705;28;20045;-85
2023/08/27 05:35:38;;;;;;;4.72;2.30;;;;;;;;;;5088665;28;20108;-85
2023/08/27 05:38:06;;;;;;;4.50;2.22;;;;;;;;;;5085933;28;20047;-84
2023/08/27 05:40:32;;;;;;;3.45;1.90;;;;;;;;;;5067974;28;20504;-83
2023/08/27 05:42:59;;;;;;;4.10;2.85;;;;;;;;;;5063129;28;20052;-83
2023/08/27 05:45:25;;;;;;;4.15;1.95;;;;;;;;;;5063593;28;20720;-84
2023/08/27 05:47:52;;;;;;;4.43;2.00;;;;;;;;;;5066076;28;20055;-86
2023/08/27 05:50:19;;;;;;;3.55;2.03;;;;;;;;;;5065882;28;20140;-85
2023/08/27 05:52:45;;;;;;;3.28;1.73;;;;;;;;;;5069676;28;20067;-83
2023/08/27 05:55:13;;;;;;;7.60;1.98;;;;;;;;;;5085244;28;20048;-84
2023/08/27 05:57:40;;;;;;;5.70;1.70;;;;;;;;;;5087192;28;20131;-86
2023/08/27 06:00:09;;;;;;;4.95;1.90;;;;;;;;;;5085819;28;20131;-86
2023/08/27 06:02:36;;;;;;;3.85;2.10;;;;;;;;;;5087485;28;20078;-85
2023/08/27 06:05:04;;;;;;;4.43;1.90;;;;;;;;;;5088445;28;20402;-83
2023/08/27 06:07:30;;;;;;;5.60;2.05;;;;;;;;;;5089804;28;20059;-87
2023/08/27 06:09:57;;;;;;;5.15;2.15;;;;;;;;;;5089207;28;20059;-85
2023/08/27 06:12:25;;;;;;;4.03;2.20;;;;;;;;;;5091360;28;20139;-88
2023/08/27 06:14:51;;;;;;;3.63;2.00;;;;;;;;;;5095822;28;20097;-87
2023/08/27 06:17:18;;;;;;;4.22;1.90;;;;;;;;;;5087004;28;20443;-85
2023/08/27 06:19:44;;;;;;;5.55;2.00;;;;;;;;;;5057747;28;20498;-84
2023/08/27 06:22:11;;;;;;;5.20;2.30;;;;;;;;;;5059176;28;20076;-83
2023/08/27 06:24:37;;;;;;;4.03;2.05;;;;;;;;;;5059821;28;20049;-83
2023/08/27 06:27:04;;;;;;;3.22;1.95;;;;;;;;;;5059033;28;20055;-83
2023/08/27 06:29:32;;;;;;;4.10;1.67;;;;;;;;;;5060722;28;20132;-84
2023/08/27 06:31:59;;;;;;;3.92;1.85;;;;;;;;;;5058723;28;20049;-84
2023/08/27 06:34:26;;;;;;;2.67;1.38;;;;;;;;;;5058968;28;20555;-83
2023/08/27 06:36:55;;;;;;;4.03;1.40;;;;;;;;;;5061161;28;20105;-85
2023/08/27 06:39:21;;;;;;;3.00;1.30;;;;;;;;;;5061418;28;20049;-85
2023/08/27 06:41:48;;;;;;;3.00;1.58;;;;;;;;;;5063420;28;20415;-83
2023/08/27 06:44:15;;;;;;;5.43;2.20;;;;;;;;;;5065161;28;20059;-84
2023/08/27 06:46:43;;;;;;;2.55;1.30;;;;;;;;;;5061563;28;20100;-86
2023/08/27 06:49:09;;;;;;;5.90;2.22;;;;;;;;;;5063274;28;20415;-85
2023/08/27 06:51:36;;;;;;;4.63;1.60;;;;;;;;;;5065673;28;20055;-85
2023/08/27 06:54:02;;;;;;;3.45;1.42;;;;;;;;;;5069748;28;20072;-85
2023/08/27 06:56:29;;;;;;;2.78;1.45;;;;;;;;;;5072184;28;20087;-86
2023/08/27 06:58:56;;;;;;;3.05;1.60;;;;;;;;;;5072597;28;20123;-88
2023/08/27 07:01:23;;;;;;;3.40;1.80;;;;;;;;;;5080086;28;20043;-86
2023/08/27 07:03:53;;;;;;;3.40;1.73;;;;;;;;;;5076910;28;20041;-87
2023/08/27 07:06:19;;;;;;;3.37;1.60;;;;;;;;;;5075179;28;20024;-88
2023/08/27 07:08:46;;;;;;;5.13;1.80;;;;;;;;;;5076538;28;20274;-85
2023/08/27 07:11:12;;;;;;;3.83;2.08;;;;;;;;;;5065860;28;20053;-85
2023/08/27 07:13:39;;;;;;;3.47;1.80;;;;;;;;;;5066992;28;20049;-85
2023/08/27 07:16:06;;;;;;;3.72;1.58;;;;;;;;;;5063946;28;20052;-85
2023/08/27 07:18:33;;;;;;;2.67;1.52;;;;;;;;;;5063876;28;20056;-86
2023/08/27 07:21:01;;;;;;;3.45;1.67;;;;;;;;;;5062470;28;20483;-84
2023/08/27 07:23:27;;;;;;;3.30;1.77;;;;;;;;;;5063590;28;20053;-85
2023/08/27 07:25:54;;;;;;;3.30;1.70;;;;;;;;;;5064330;28;20105;-85
2023/08/27 07:28:20;;;;;;;3.85;1.92;;;;;;;;;;5066940;28;20068;-85
2023/08/27 07:30:49;;;;;;;3.53;1.73;;;;;;;;;;5064934;28;20049;-85
2023/08/27 07:33:16;;;;;;;4.05;1.98;;;;;;;;;;5069920;28;20049;-86
2023/08/27 07:35:43;;;;;;;4.18;2.28;;;;;;;;;;5067392;28;20041;-85
2023/08/27 07:38:11;;;;;;;3.67;2.03;;;;;;;;;;5065476;28;20077;-85
2023/08/27 07:40:37;;;;;;;3.92;2.00;;;;;;;;;;5061392;28;20148;-84
2023/08/27 07:43:04;;;;;;;4.68;1.90;;;;;;;;;;5061582;28;20037;-85
2023/08/27 07:45:30;;;;;;;5.40;2.22;;;;;;;;;;5059707;28;20049;-85
2023/08/27 07:47:56;;;;;;;4.25;1.88;;;;;;;;;;5062353;28;20079;-85
2023/08/27 07:50:23;;;;;;;3.42;1.80;;;;;;;;;;5055736;28;20055;-86
2023/08/27 07:52:50;;;;;;;3.80;2.00;;;;;;;;;;5058211;28;20049;-84
2023/08/27 07:55:19;;;;;;;3.15;2.05;;;;;;;;;;5060810;28;20051;-85
2023/08/27 07:57:45;;;;;;;3.50;1.80;;;;;;;;;;5051886;28;20060;-84
2023/08/27 08:00:14;;;;;;;5.03;2.20;;;;;;;;;;5054667;28;20045;-84
2023/08/27 08:02:41;;;;;;;4.13;1.80;;;;;;;;;;5056297;28;20049;-84
2023/08/27 08:05:09;;;;;;;3.25;1.70;;;;;;;;;;5066126;28;20112;-83
2023/08/27 08:07:35;;;;;;;3.80;2.00;;;;;;;;;;5064429;28;20056;-84
2023/08/27 08:10:03;;;;;;;4.53;2.08;;;;;;;;;;5067074;28;20052;-84
2023/08/27 08:12:31;;;;;;;3.08;1.67;;;;;;;;;;5058451;28;20107;-86
2023/08/27 08:14:57;;;;;;;3.65;1.67;;;;;;;;;;5056826;28;20496;-85
2023/08/27 08:17:24;;;;;;;3.15;1.60;;;;;;;;;;5057886;28;20041;-85
2023/08/27 08:19:52;;;;;;;4.22;1.77;;;;;;;;;;5060316;28;20113;-85
2023/08/27 08:22:18;;;;;;;3.05;1.88;;;;;;;;;;5058946;28;20049;-84
2023/08/27 08:24:45;;;;;;;3.40;1.70;;;;;;;;;;5059814;28;20047;-84
2023/08/27 08:27:11;;;;;;;4.57;1.80;;;;;;;;;;5055850;28;20048;-84
2023/08/27 08:29:39;;;;;;;3.20;1.40;;;;;;;;;;5053077;28;20045;-86
2023/08/27 08:32:06;;;;;;;4.15;1.50;;;;;;;;;;5057625;28;20064;-86
2023/08/27 08:34:33;;;;;;;3.60;1.80;;;;;;;;;;5054423;28;20080;-85
2023/08/27 08:37:01;;;;;;;4.53;1.83;;;;;;;;;;5052793;28;20053;-84
2023/08/27 08:39:27;;;;;;;5.05;1.90;;;;;;;;;;5062829;28;20070;-86
2023/08/27 08:42:03;;;;;;;4.03;1.73;;;;;;;;;;5063316;28;20041;-87
2023/08/27 08:44:36;;;;;;;3.42;1.60;;;;;;;;;;5056749;28;20048;-85
2023/08/27 08:47:06;;;;;;;3.85;1.77;;;;;;;;;;5057455;28;20079;-87
2023/08/27 08:49:34;;;;;;;4.78;1.75;;;;;;;;;;5061099;28;20059;-88
2023/08/27 08:52:08;;;;;;;3.55;1.30;;;;;;;;;;5052948;28;20073;-86
2023/08/27 08:54:37;;;;;;;2.95;1.42;;;;;;;;;;5067865;28;20108;-89
2023/08/27 08:57:07;;;;;;;4.15;2.00;;;;;;;;;;5076519;28;20068;-91
2023/08/27 08:59:34;;;;;;;5.22;2.15;;;;;;;;;;5062559;28;20045;-86
2023/08/27 09:02:02;;;;;;;3.75;1.42;;;;;;;;;;5065511;28;20052;-85
2023/08/27 09:04:30;;;;;;;4.82;2.17;;;;;;;;;;5064409;28;20065;-88
2023/08/27 09:06:57;;;;;;;4.97;1.90;;;;;;;;;;5064884;28;20045;-86
2023/08/27 09:09:24;;;;;;;4.95;2.42;;;;;;;;;;5067865;28;20128;-86
2023/08/27 09:11:52;;;;;;;4.90;1.73;;;;;;;;;;5074762;28;20057;-86
2023/08/27 09:14:22;;;;;;;4.82;1.58;;;;;;;;;;5064639;28;20045;-86
2023/08/27 09:16:48;;;;;;;3.55;1.83;;;;;;;;;;5061423;28;20063;-89
2023/08/27 09:19:15;;;;;;;5.13;1.52;;;;;;;;;;5068044;28;20056;-88
2023/08/27 09:21:44;;;;;;;4.75;3.35;;;;;;;;;;5077757;28;20097;-86
2023/08/27 09:24:11;;;;;;;6.10;3.15;;;;;;;;;;5073065;28;20040;-89
2023/08/27 09:26:38;;;;;;;3.60;1.80;;;;;;;;;;5058696;28;20064;-86
2023/08/27 09:29:07;;;;;;;4.50;2.45;;;;;;;;;;5049894;28;20048;-86
2023/08/27 09:31:38;;;;;;;5.10;2.88;;;;;;;;;;5056909;28;20113;-85
2023/08/27 09:34:05;;;;;;;4.97;2.83;;;;;;;;;;5064343;28;20568;-82
2023/08/27 09:36:32;;;;;;;7.25;3.72;;;;;;;;;;5052984;28;20046;-83
2023/08/27 09:39:07;;;;;;;6.40;3.53;;;;;;;;;;5057486;28;20049;-85
2023/08/27 09:41:37;;;;;;;8.77;4.45;;;;;;;;;;5052878;28;20048;-85
2023/08/27 09:44:04;;;;;;;8.30;3.25;;;;;;;;;;5054674;28;20105;-84
2023/08/27 09:46:31;;;;;;;5.57;2.30;;;;;;;;;;5068654;28;20091;-84
2023/08/27 09:48:59;;;;;;;5.78;2.25;;;;;;;;;;5065016;28;20048;-86
2023/08/27 09:51:25;;;;;;;4.30;1.85;;;;;;;;;;5059810;28;20049;-85
2023/08/27 09:53:52;;;;;;;3.03;1.50;;;;;;;;;;5076066;28;20051;-86
2023/08/27 09:56:23;;;;;;;2.58;1.30;;;;;;;;;;5071171;28;20110;-89
2023/08/27 09:58:50;;;;;;;1.95;1.02;;;;;;;;;;5078399;28;20049;-86
2023/08/27 10:01:16;;;;;;;2.67;1.10;;;;;;;;;;5077371;28;20049;-86
2023/08/27 10:03:45;;;;;;;2.72;1.20;;;;;;;;;;5075619;28;20049;-87
2023/08/27 10:06:12;;;;;;;2.90;1.23;;;;;;;;;;5059088;28;20051;-83
2023/08/27 10:08:46;;;;;;;2.00;1.00;;;;;;;;;;5057607;28;20041;-84
2023/08/27 10:11:16;;;;;;;2.78;1.20;;;;;;;;;;5063365;28;20068;-83
2023/08/27 10:13:45;;;;;;;2.07;1.10;;;;;;;;;;5064376;28;20108;-84
2023/08/27 10:16:12;;;;;;;2.22;0.90;;;;;;;;;;5078753;28;20104;-82
2023/08/27 10:18:39;;;;;;;2.17;0.90;;;;;;;;;;5052133;28;20475;-83
2023/08/27 10:21:07;;;;;;;2.28;0.98;;;;;;;;;;5050411;28;20049;-82
2023/08/27 10:23:34;;;;;;;2.22;0.98;;;;;;;;;;5052193;28;20487;-81
2023/08/27 10:26:02;;;;;;;2.33;1.00;;;;;;;;;;5053761;28;20112;-82
2023/08/27 10:28:29;;;;;;;3.03;1.30;;;;;;;;;;5043263;28;21940;-82
2023/08/27 10:30:57;;;;;;;2.88;1.15;;;;;;;;;;5063813;28;20063;-85
2023/08/27 10:33:24;;;;;;;6.95;1.17;;;;;;;;;;5070787;28;20045;-83
2023/08/27 10:35:52;;;;;;;3.25;1.55;;;;;;;;;;5057425;28;20055;-83
2023/08/27 10:38:21;;;;;;;2.20;1.10;;;;;;;;;;5053759;28;20056;-83
2023/08/27 10:40:49;;;;;;;2.15;1.10;;;;;;;;;;5055068;28;20064;-84
2023/08/27 10:43:18;;;;;;;2.10;1.00;;;;;;;;;;5056098;28;20175;-84
2023/08/27 10:45:45;;;;;;;2.90;1.65;;;;;;;;;;5058116;28;20072;-83
2023/08/27 10:48:26;;;;;;;3.22;1.20;;;;;;;;;;5060060;28;20521;-81
2023/08/27 10:50:55;;;;;;;3.40;1.45;;;;;;;;;;5061105;28;20056;-84
2023/08/27 10:53:22;;;;;;;3.78;1.40;;;;;;;;;;5060521;28;20458;-83
2023/08/27 10:55:51;;;;;;;2.40;1.08;;;;;;;;;;5063126;28;20045;-85
2023/08/27 10:58:20;;;;;;;3.30;1.20;;;;;;;;;;5067891;28;20033;-84
2023/08/27 11:01:09;;;;;;;3.53;1.30;;;;;;;;;;5067634;28;20040;-84
2023/08/27 11:03:56;;;;;;;3.55;1.67;;;;;;;;;;5058006;28;20285;-82
2023/08/27 11:06:41;;;;;;;3.13;1.40;;;;;;;;;;5055596;28;20056;-84
2023/08/27 11:09:18;;;;;;;3.25;1.20;;;;;;;;;;5060189;28;20037;-85
2023/08/27 11:11:46;;;;;;;3.40;1.30;;;;;;;;;;5048976;28;20049;-85
2023/08/27 11:14:15;;;;;;;3.30;1.42;;;;;;;;;;5052180;28;20064;-85
2023/08/27 11:16:47;;;;;;;3.80;1.60;;;;;;;;;;5052260;28;20048;-85
2023/08/27 11:19:25;;;;;;;2.88;1.08;;;;;;;;;;5059339;28;20119;-84
2023/08/27 11:21:52;;;;;;;3.35;1.48;;;;;;;;;;5059214;28;20392;-85
2023/08/27 11:24:23;;;;;;;4.20;1.40;;;;;;;;;;5060598;28;20048;-84
2023/08/27 11:26:50;;;;;;;3.53;1.60;;;;;;;;;;5062117;28;20057;-84
2023/08/27 11:29:17;;;;;;;3.33;1.38;;;;;;;;;;5074805;28;20037;-84
2023/08/27 11:31:47;;;;;;;3.15;1.25;;;;;;;;;;5075455;28;20038;-86
2023/08/27 11:34:16;;;;;;;5.37;1.00;;;;;;;;;;5085636;28;20096;-83
2023/08/27 11:36:46;;;;;;;1.00;0.63;;;;;;;;;;5074938;28;20277;-85
2023/08/27 11:39:14;;;;;;;3.60;1.07;;;;;;;;;;5054548;28;20052;-87
2023/08/27 11:41:43;;;;;;;2.50;1.10;;;;;;;;;;5070040;28;20131;-79
2023/08/27 11:44:11;;;;;;;1.90;0.90;;;;;;;;;;5070427;28;20632;-86
2023/08/27 11:46:39;;;;;;;1.73;0.80;;;;;;;;;;5077508;28;20044;-84
2023/08/27 11:49:06;;;;;;;2.40;1.08;;;;;;;;;;5071873;28;20060;-85
2023/08/27 11:51:34;;;;;;;1.27;0.75;;;;;;;;;;5065163;28;20052;-85
2023/08/27 11:54:05;;;;;;;1.73;0.82;;;;;;;;;;5059872;28;20411;-85
2023/08/27 11:56:32;;;;;;;2.60;0.80;;;;;;;;;;5075759;28;20041;-85
2023/08/27 11:58:59;;;;;;;2.63;0.85;;;;;;;;;;5080669;28;20124;-85
2023/08/27 12:01:26;;;;;;;2.65;0.90;;;;;;;;;;5081695;28;20055;-84
2023/08/27 12:03:53;;;;;;;2.92;1.20;;;;;;;;;;5080558;28;20511;-84
2023/08/27 12:06:24;;;;;;;2.58;1.20;;;;;;;;;;5080537;28;20072;-86
2023/08/27 12:08:54;;;;;;;4.40;2.10;;;;;;;;;;5080427;28;20079;-84
2023/08/27 12:11:26;;;;;;;5.25;2.00;;;;;;;;;;5081331;28;20048;-86
2023/08/27 12:13:56;;;;;;;3.13;1.48;;;;;;;;;;5080326;28;20045;-84
2023/08/27 12:16:28;;;;;;;2.70;1.20;;;;;;;;;;5078514;28;20374;-85
2023/08/27 12:19:00;;;;;;;2.22;1.00;;;;;;;;;;5079034;28;20080;-85
2023/08/27 12:21:27;;;;;;;3.05;1.00;;;;;;;;;;5082815;28;20055;-85
2023/08/27 12:23:54;;;;;;;1.67;0.95;;;;;;;;;;5083537;28;20055;-85
2023/08/27 12:26:23;;;;;;;3.22;1.20;;;;;;;;;;5082455;28;20521;-85
2023/08/27 12:28:53;;;;;;;2.70;1.17;;;;;;;;;;5083179;28;20411;-84
2023/08/27 12:31:23;;;;;;;4.07;1.67;;;;;;;;;;5083566;28;20071;-85
2023/08/27 12:33:49;;;;;;;3.15;1.45;;;;;;;;;;5084433;28;20053;-85
2023/08/27 12:36:16;;;;;;;4.95;2.65;;;;;;;;;;5082721;28;20044;-84
2023/08/27 12:38:42;;;;;;;4.68;2.40;;;;;;;;;;5082982;28;20111;-84
2023/08/27 12:41:10;;;;;;;8.45;4.72;;;;;;;;;;5082638;28;20521;-86
2023/08/27 12:43:38;;;;;;;9.50;5.20;;;;;;;;;;5082361;28;20048;-85
2023/08/27 12:46:06;;;;;;;8.07;4.30;;;;;;;;;;5079449;28;20507;-85
2023/08/27 12:48:33;;;;;;;10.88;6.03;;;;;;;;;;5080072;28;20047;-84
2023/08/27 12:51:00;;;;;;;10.60;5.68;;;;;;;;;;5083206;28;20475;-84
2023/08/27 12:53:26;;;;;;;9.20;3.80;;;;;;;;;;5083899;28;20046;-87
2023/08/27 12:55:53;;;;;;;5.22;2.20;;;;;;;;;;5082926;28;20052;-83
2023/08/27 12:58:20;;;;;;;3.90;1.73;;;;;;;;;;5081588;28;20055;-85
2023/08/27 13:00:47;;;;;;;2.75;1.08;;;;;;;;;;5082476;28;20431;-85
2023/08/27 13:03:14;;;;;;;1.48;0.73;;;;;;;;;;5082590;28;20045;-85
2023/08/27 13:05:40;;;;;;;2.33;0.88;;;;;;;;;;5082577;28;20040;-85
2023/08/27 13:08:07;;;;;;;1.95;0.82;;;;;;;;;;5082591;28;20048;-85
2023/08/27 13:10:33;;;;;;;2.50;1.10;;;;;;;;;;5082821;28;20052;-87
2023/08/27 13:13:00;;;;;;;2.63;0.85;;;;;;;;;;5079753;28;20055;-85
2023/08/27 13:15:28;;;;;;;2.38;0.80;;;;;;;;;;5078588;28;20048;-86
2023/08/27 13:17:54;;;;;;;2.42;0.75;;;;;;;;;;5078994;28;20219;-86
2023/08/27 13:20:21;;;;;;;1.52;0.88;;;;;;;;;;5080507;28;20052;-86
2023/08/27 13:22:48;;;;;;;2.33;0.80;;;;;;;;;;5083073;28;20040;-86
2023/08/27 13:25:15;;;;;;;2.08;0.90;;;;;;;;;;5080536;28;20131;-86
2023/08/27 13:27:41;;;;;;;3.13;0.98;;;;;;;;;;5081864;28;20115;-86
2023/08/27 13:30:09;;;;;;;3.13;0.95;;;;;;;;;;5082985;28;20396;-86
2023/08/27 13:32:36;;;;;;;1.80;0.82;;;;;;;;;;5082396;28;20063;-84
2023/08/27 13:35:05;;;;;;;2.08;0.80;;;;;;;;;;5084485;28;20108;-84
2023/08/27 13:37:32;;;;;;;2.95;0.95;;;;;;;;;;5084673;28;20060;-87
2023/08/27 13:39:59;;;;;;;1.80;0.63;;;;;;;;;;5084461;28;20570;-85
2023/08/27 13:42:25;;;;;;;1.55;0.80;;;;;;;;;;5084420;28;20044;-85
2023/08/27 13:44:52;;;;;;;2.70;0.93;;;;;;;;;;5087754;28;20080;-85
2023/08/27 13:47:18;;;;;;;2.72;0.77;;;;;;;;;;5091158;28;20048;-84
2023/08/27 13:49:46;;;;;;;3.03;0.90;;;;;;;;;;5091042;28;20463;-84
2023/08/27 13:52:18;;;;;;;1.50;0.75;;;;;;;;;;5091952;28;20052;-83
2023/08/27 13:54:46;;;;;;;1.65;0.75;;;;;;;;;;5095181;28;20036;-84
2023/08/27 13:57:13;;;;;;;2.60;0.98;;;;;;;;;;5096373;28;20120;-84
2023/08/27 13:59:40;;;;;;;2.10;0.77;;;;;;;;;;5095439;28;20048;-82
2023/08/27 14:02:07;;;;;;;3.03;0.95;;;;;;;;;;5082536;28;20045;-84
2023/08/27 14:04:34;;;;;;;3.10;1.20;;;;;;;;;;5075256;28;20050;-84
2023/08/27 14:07:03;;;;;;;4.18;1.83;;;;;;;;;;5075510;28;20044;-84
2023/08/27 14:09:30;;;;;;;3.50;1.65;;;;;;;;;;5075598;28;20041;-84
2023/08/27 14:11:56;;;;;;;1.85;0.95;;;;;;;;;;5077652;28;20110;-85
2023/08/27 14:14:23;;;;;;;2.75;1.00;;;;;;;;;;5079542;28;20127;-84
2023/08/27 14:16:50;;;;;;;2.70;0.93;;;;;;;;;;5078040;28;20080;-84
2023/08/27 14:19:16;;;;;;;3.05;1.20;;;;;;;;;;5081498;28;20040;-86
2023/08/27 14:21:43;;;;;;;2.72;1.08;;;;;;;;;;5077109;28;20060;-85
2023/08/27 14:24:11;;;;;;;2.35;1.05;;;;;;;;;;5081382;28;20045;-87
2023/08/27 14:26:38;;;;;;;2.58;0.90;;;;;;;;;;5066495;28;20060;-85
2023/08/27 14:29:04;;;;;;;1.90;0.80;;;;;;;;;;5053593;28;20052;-85
2023/08/27 14:31:31;;;;;;;2.75;1.15;;;;;;;;;;5052371;28;20423;-83
2023/08/27 14:34:02;;;;;;;3.75;1.08;;;;;;;;;;5053742;28;20079;-84
2023/08/27 14:36:29;;;;;;;2.08;0.90;;;;;;;;;;5057182;28;20064;-84
2023/08/27 14:38:55;;;;;;;1.73;0.77;;;;;;;;;;5059020;28;20105;-84
2023/08/27 14:41:27;;;;;;;1.67;0.80;;;;;;;;;;5061820;28;20045;-84
2023/08/27 14:43:54;;;;;;;2.47;0.90;;;;;;;;;;5060863;28;20084;-85
2023/08/27 14:46:20;;;;;;;1.38;0.60;;;;;;;;;;5063164;28;20045;-82
2023/08/27 14:48:48;;;;;;;1.58;0.70;;;;;;;;;;5061278;28;20041;-85